Time;durP1;ratioP1;P1;durP2;ratioP2;P2;SDS_P1;SDS_P2;PMS_P1;PMS_P2;Temp;Humidity;BMP_temperature;BMP_pressure;BME280_temperature;BME280_humidity;BME280_pressure;Samples;Min_cycle;Max_cycle;Signal;HPM_P1;HPM_P2
2021/12/06 00:01:24;;;;;;;56.27;28.07;;;3.70;99.90;;;;;;5059635;28;20721;-72
2021/12/06 00:03:59;;;;;;;54.60;27.80;;;3.70;99.90;;;;;;5064601;28;20192;-71
2021/12/06 00:06:33;;;;;;;55.37;28.47;;;3.70;99.90;;;;;;5065133;28;20265;-71
2021/12/06 00:09:02;;;;;;;59.47;28.67;;;3.70;99.90;;;;;;5076787;28;20686;-72
2021/12/06 00:11:34;;;;;;;53.93;26.50;;;3.70;99.90;;;;;;5068483;28;20196;-72
2021/12/06 00:14:04;;;;;;;49.73;26.27;;;3.70;99.90;;;;;;5066855;28;20277;-71
2021/12/06 00:16:33;;;;;;;50.80;26.20;;;3.70;99.90;;;;;;5064731;28;20743;-71
2021/12/06 00:19:04;;;;;;;54.60;27.57;;;3.70;99.90;;;;;;5062827;28;20220;-72
2021/12/06 00:21:33;;;;;;;52.97;27.70;;;3.70;99.90;;;;;;5064262;28;20196;-71
2021/12/06 00:24:02;;;;;;;55.80;27.83;;;3.70;99.90;;;;;;5075290;28;20691;-71
2021/12/06 00:26:30;;;;;;;57.10;27.13;;;3.70;99.90;;;;;;5062590;28;20200;-71
2021/12/06 00:28:59;;;;;;;52.77;25.90;;;3.70;99.90;;;;;;5069168;28;20694;-72
2021/12/06 00:31:32;;;;;;;50.03;25.83;;;3.70;99.90;;;;;;5062589;28;20212;-71
2021/12/06 00:34:07;;;;;;;53.27;25.87;;;3.70;99.90;;;;;;5063695;28;20675;-71
2021/12/06 00:36:38;;;;;;;52.27;25.73;;;3.60;99.90;;;;;;5067030;28;20249;-71
2021/12/06 00:39:11;;;;;;;51.53;25.77;;;3.60;99.90;;;;;;5064265;28;20288;-71
2021/12/06 00:41:40;;;;;;;46.90;24.47;;;3.60;99.90;;;;;;5064676;28;20221;-72
2021/12/06 00:44:10;;;;;;;49.90;25.60;;;3.60;99.90;;;;;;5064977;28;20283;-71
2021/12/06 00:46:39;;;;;;;56.33;26.50;;;3.60;99.90;;;;;;5061746;28;20195;-71
2021/12/06 00:49:11;;;;;;;44.97;24.03;;;3.60;99.90;;;;;;5078342;28;20208;-71
2021/12/06 00:51:40;;;;;;;49.87;24.47;;;3.60;99.90;;;;;;5062376;28;20216;-71
2021/12/06 00:54:09;;;;;;;49.43;25.13;;;3.60;99.90;;;;;;5061621;28;20193;-71
2021/12/06 00:56:38;;;;;;;48.07;24.33;;;3.60;99.90;;;;;;5065578;28;20200;-72
2021/12/06 00:59:07;;;;;;;47.37;25.07;;;3.60;99.90;;;;;;5063216;28;20210;-71
2021/12/06 01:01:37;;;;;;;48.70;25.20;;;3.60;99.90;;;;;;5067185;28;20533;-72
2021/12/06 01:04:07;;;;;;;49.00;24.73;;;3.60;99.90;;;;;;5062061;28;20216;-71
2021/12/06 01:06:37;;;;;;;49.53;24.50;;;3.60;99.90;;;;;;5060614;28;20204;-71
2021/12/06 01:09:05;;;;;;;45.33;22.80;;;3.60;99.90;;;;;;5059801;28;20663;-70
2021/12/06 01:11:34;;;;;;;47.47;24.73;;;3.60;99.90;;;;;;5074789;28;20236;-72
2021/12/06 01:14:03;;;;;;;44.97;22.90;;;3.60;99.90;;;;;;5063745;28;20215;-71
2021/12/06 01:16:32;;;;;;;44.47;23.77;;;3.60;99.90;;;;;;5065560;28;20617;-72
2021/12/06 01:19:00;;;;;;;47.27;24.27;;;3.60;99.90;;;;;;5064462;28;20196;-71
2021/12/06 01:21:41;;;;;;;48.03;24.20;;;3.60;99.90;;;;;;5057790;28;20677;-72
2021/12/06 01:24:12;;;;;;;49.57;24.23;;;3.60;99.90;;;;;;5063990;28;20199;-72
2021/12/06 01:27:03;;;;;;;52.13;25.23;;;3.60;99.90;;;;;;5059765;28;20201;-71
2021/12/06 01:32:35;;;;;;;50.67;24.53;;;3.60;99.90;;;;;;5062429;28;20261;-71
2021/12/06 01:40:49;;;;;;;53.00;25.57;;;3.60;99.90;;;;;;5052561;28;20274;-71
2021/12/06 01:43:18;;;;;;;45.80;24.27;;;3.50;99.90;;;;;;5060441;28;20558;-71
2021/12/06 01:45:47;;;;;;;42.23;23.13;;;3.50;99.90;;;;;;5058442;28;20192;-72
2021/12/06 01:48:15;;;;;;;50.07;24.87;;;3.50;99.90;;;;;;5094802;28;20204;-71
2021/12/06 01:50:44;;;;;;;51.23;25.27;;;3.50;99.90;;;;;;5055284;28;20208;-71
2021/12/06 01:53:13;;;;;;;48.33;25.20;;;3.50;99.90;;;;;;5063343;28;20206;-70
2021/12/06 01:55:41;;;;;;;45.70;25.40;;;3.50;99.90;;;;;;5061800;28;20258;-71
2021/12/06 01:58:12;;;;;;;53.83;27.40;;;3.50;99.90;;;;;;5065740;28;20265;-71
2021/12/06 02:00:45;;;;;;;46.63;23.93;;;3.50;99.90;;;;;;5065091;28;20192;-71
2021/12/06 02:03:14;;;;;;;52.63;26.67;;;3.50;99.90;;;;;;5060706;28;20285;-71
2021/12/06 02:05:45;;;;;;;50.40;24.27;;;3.50;99.90;;;;;;5059596;28;20663;-71
2021/12/06 02:08:13;;;;;;;44.77;23.43;;;3.50;99.90;;;;;;5067278;28;20206;-71
2021/12/06 02:10:42;;;;;;;54.50;25.77;;;3.50;99.90;;;;;;5063415;28;20281;-71
2021/12/06 02:13:13;;;;;;;51.60;25.33;;;3.50;99.90;;;;;;5087351;28;20242;-71
2021/12/06 02:15:46;;;;;;;48.50;23.57;;;3.50;99.90;;;;;;5061769;28;20251;-70
2021/12/06 02:18:37;;;;;;;50.60;25.33;;;3.50;99.90;;;;;;5056245;28;20212;-70
2021/12/06 02:21:13;;;;;;;56.60;27.33;;;3.50;99.90;;;;;;5068919;28;20200;-70
2021/12/06 02:23:42;;;;;;;55.80;27.80;;;3.50;99.90;;;;;;5064899;28;20206;-71
2021/12/06 02:26:11;;;;;;;55.47;27.13;;;3.50;99.90;;;;;;5063782;28;20188;-71
2021/12/06 02:28:40;;;;;;;51.53;25.77;;;3.50;99.90;;;;;;5059799;28;20200;-71
2021/12/06 02:31:09;;;;;;;55.80;27.37;;;3.50;99.90;;;;;;5087269;28;20250;-71
2021/12/06 02:33:39;;;;;;;55.60;27.03;;;3.50;99.90;;;;;;5058162;28;20205;-71
2021/12/06 02:36:07;;;;;;;56.03;27.40;;;3.50;99.90;;;;;;5054779;28;20196;-70
2021/12/06 02:38:38;;;;;;;57.53;27.67;;;3.50;99.90;;;;;;5062234;28;20196;-71
2021/12/06 02:41:08;;;;;;;58.80;28.03;;;3.50;99.90;;;;;;5060909;28;20232;-71
2021/12/06 02:43:37;;;;;;;58.37;28.23;;;3.50;99.90;;;;;;5059541;28;20206;-71
2021/12/06 02:46:06;;;;;;;65.43;30.63;;;3.50;99.90;;;;;;5060573;28;20212;-70
2021/12/06 02:48:36;;;;;;;58.50;29.40;;;3.50;99.90;;;;;;5063307;28;20189;-71
2021/12/06 02:51:07;;;;;;;56.73;29.10;;;3.50;99.90;;;;;;5057121;28;20240;-71
2021/12/06 02:53:39;;;;;;;55.20;27.00;;;3.50;99.90;;;;;;5087809;28;20283;-71
2021/12/06 02:56:18;;;;;;;57.83;27.90;;;3.50;99.90;;;;;;5055101;28;20209;-71
2021/12/06 02:58:56;;;;;;;56.80;29.07;;;3.50;99.90;;;;;;5061403;28;20201;-71
2021/12/06 03:01:34;;;;;;;55.07;27.17;;;3.50;99.90;;;;;;5054081;28;20200;-71
2021/12/06 03:04:04;;;;;;;58.87;27.50;;;3.50;99.90;;;;;;5059984;28;20192;-70
2021/12/06 03:06:33;;;;;;;56.87;27.90;;;3.40;99.90;;;;;;5073659;28;20713;-71
2021/12/06 03:09:08;;;;;;;53.47;26.40;;;3.40;99.90;;;;;;5058439;28;20271;-71
2021/12/06 03:11:41;;;;;;;56.00;26.83;;;3.40;99.90;;;;;;5045836;28;20569;-71
2021/12/06 03:14:12;;;;;;;57.53;28.33;;;3.40;99.90;;;;;;5064707;28;20287;-70
2021/12/06 03:16:41;;;;;;;55.93;26.17;;;3.40;99.90;;;;;;5060878;28;20192;-71
2021/12/06 03:19:13;;;;;;;55.93;27.53;;;3.40;99.90;;;;;;5058991;28;20206;-71
2021/12/06 03:21:41;;;;;;;61.73;28.33;;;3.40;99.90;;;;;;5062259;28;20612;-71
2021/12/06 03:24:12;;;;;;;53.20;27.53;;;3.30;99.90;;;;;;5056835;28;20197;-70
2021/12/06 03:26:41;;;;;;;61.87;28.27;;;3.30;99.90;;;;;;5059550;28;20216;-71
2021/12/06 03:29:11;;;;;;;60.20;27.60;;;3.30;99.90;;;;;;5058852;28;20200;-71
2021/12/06 03:31:41;;;;;;;51.83;26.37;;;3.20;99.90;;;;;;5061813;28;20217;-71
2021/12/06 03:34:11;;;;;;;52.00;26.67;;;3.00;99.90;;;;;;5057394;28;20209;-70
2021/12/06 03:36:40;;;;;;;54.43;26.20;;;2.80;99.90;;;;;;5058180;28;20201;-71
2021/12/06 03:39:14;;;;;;;57.87;27.27;;;2.70;99.90;;;;;;5059197;28;20219;-71
2021/12/06 03:41:43;;;;;;;51.87;25.83;;;2.70;99.90;;;;;;5056870;28;20224;-71
2021/12/06 03:44:12;;;;;;;50.97;25.47;;;2.60;99.90;;;;;;5048020;28;20188;-70
2021/12/06 03:46:42;;;;;;;55.40;25.93;;;2.50;99.90;;;;;;5057708;28;20216;-71
2021/12/06 03:49:12;;;;;;;55.23;26.70;;;2.40;99.90;;;;;;5057439;28;20195;-71
2021/12/06 03:51:41;;;;;;;59.67;26.90;;;2.30;99.90;;;;;;5056506;28;20201;-71
2021/12/06 03:54:09;;;;;;;50.03;25.87;;;2.20;99.90;;;;;;5055740;28;20224;-70
2021/12/06 03:56:41;;;;;;;55.63;26.70;;;2.20;99.90;;;;;;5054401;28;20192;-71
2021/12/06 03:59:10;;;;;;;53.87;26.13;;;2.10;99.90;;;;;;5060771;28;20216;-70
2021/12/06 04:01:40;;;;;;;59.10;26.27;;;1.90;99.90;;;;;;5060870;28;20184;-71
2021/12/06 04:04:10;;;;;;;52.20;24.70;;;1.80;99.90;;;;;;5057212;28;20210;-71
2021/12/06 04:06:40;;;;;;;54.60;24.83;;;1.70;99.90;;;;;;5059342;28;20271;-71
2021/12/06 04:09:09;;;;;;;55.67;25.43;;;1.60;99.90;;;;;;5056457;28;20291;-70
2021/12/06 04:11:40;;;;;;;54.13;25.33;;;1.50;99.90;;;;;;5052200;28;20234;-70
2021/12/06 04:14:08;;;;;;;56.90;25.33;;;1.50;99.90;;;;;;5055133;28;20290;-71
2021/12/06 04:16:37;;;;;;;58.33;25.13;;;1.40;99.90;;;;;;5059282;28;20200;-71
2021/12/06 04:19:08;;;;;;;52.63;23.40;;;1.40;99.90;;;;;;5071037;28;20197;-70
2021/12/06 04:21:39;;;;;;;52.97;25.10;;;1.30;99.90;;;;;;5057836;28;20540;-70
2021/12/06 04:24:09;;;;;;;55.27;24.23;;;1.20;99.90;;;;;;5057488;28;20287;-71
2021/12/06 04:26:38;;;;;;;51.00;24.93;;;1.10;99.90;;;;;;5055722;28;20258;-70
2021/12/06 04:29:08;;;;;;;50.13;24.57;;;1.10;99.90;;;;;;5057324;28;20311;-70
2021/12/06 04:31:39;;;;;;;56.43;24.77;;;1.00;99.90;;;;;;5062193;28;20212;-71
2021/12/06 04:34:09;;;;;;;52.43;24.27;;;0.90;99.90;;;;;;5054817;28;20281;-71
2021/12/06 04:36:39;;;;;;;51.90;25.13;;;0.80;99.90;;;;;;5057166;28;20663;-71
2021/12/06 04:39:10;;;;;;;58.70;25.97;;;0.80;99.90;;;;;;5054159;28;20197;-70
2021/12/06 04:41:41;;;;;;;67.17;29.67;;;0.80;99.90;;;;;;5056883;28;20236;-71
2021/12/06 04:44:11;;;;;;;64.50;29.57;;;0.80;99.90;;;;;;5054344;28;20197;-70
2021/12/06 04:46:39;;;;;;;58.80;26.73;;;0.80;99.90;;;;;;5052830;28;20196;-71
2021/12/06 04:49:08;;;;;;;67.13;28.50;;;0.70;99.90;;;;;;5060992;28;20259;-70
2021/12/06 04:51:39;;;;;;;64.13;28.30;;;0.70;99.90;;;;;;5056561;28;20228;-71
2021/12/06 04:54:08;;;;;;;57.93;26.73;;;0.60;99.90;;;;;;5051614;28;20205;-70
2021/12/06 04:56:47;;;;;;;48.63;22.40;;;0.60;99.90;;;;;;5054004;28;20184;-71
2021/12/06 04:59:20;;;;;;;51.77;23.60;;;0.50;99.90;;;;;;5055516;28;20227;-71
2021/12/06 05:01:53;;;;;;;48.00;23.23;;;0.50;99.90;;;;;;5060319;28;20289;-71
2021/12/06 05:04:24;;;;;;;53.73;21.63;;;0.40;99.90;;;;;;5085156;28;20198;-70
2021/12/06 05:06:57;;;;;;;75.80;22.33;;;0.50;99.90;;;;;;5061682;28;20236;-71
2021/12/06 05:09:28;;;;;;;94.30;24.10;;;0.40;99.90;;;;;;5051622;28;20308;-70
2021/12/06 05:11:59;;;;;;;103.53;24.83;;;0.40;99.90;;;;;;5054494;28;20258;-71
2021/12/06 05:14:28;;;;;;;114.90;24.87;;;0.40;99.90;;;;;;5059597;28;20211;-71
2021/12/06 05:16:57;;;;;;;99.83;26.07;;;0.30;99.90;;;;;;5051923;28;20196;-71
2021/12/06 05:19:26;;;;;;;62.43;23.97;;;0.30;99.90;;;;;;5059385;28;20200;-71
2021/12/06 05:21:55;;;;;;;57.83;21.77;;;0.20;99.90;;;;;;5055985;28;20192;-71
2021/12/06 05:24:23;;;;;;;49.77;21.90;;;0.20;99.90;;;;;;5060169;28;20231;-70
2021/12/06 05:26:52;;;;;;;52.03;22.77;;;0.10;99.90;;;;;;5054702;28;20197;-71
2021/12/06 05:29:26;;;;;;;46.50;22.03;;;0.10;99.90;;;;;;5083654;28;20204;-71
2021/12/06 05:31:57;;;;;;;48.33;21.90;;;0.00;99.90;;;;;;5056938;28;20616;-71
2021/12/06 05:34:32;;;;;;;49.40;21.93;;;0.00;99.90;;;;;;5060459;28;20211;-71
2021/12/06 05:37:01;;;;;;;45.50;22.13;;;0.00;99.90;;;;;;5059929;28;20192;-71
2021/12/06 05:39:30;;;;;;;44.73;20.93;;;-0.10;99.90;;;;;;5056323;28;20187;-71
2021/12/06 05:42:01;;;;;;;45.63;21.50;;;0.00;99.90;;;;;;5059913;28;20241;-70
2021/12/06 05:44:32;;;;;;;45.03;21.80;;;0.00;99.90;;;;;;5058160;28;20199;-70
2021/12/06 05:47:01;;;;;;;55.90;24.53;;;0.10;99.90;;;;;;5058909;28;20239;-71
2021/12/06 05:49:30;;;;;;;56.87;23.77;;;0.20;99.90;;;;;;5059158;28;20242;-71
2021/12/06 05:51:59;;;;;;;201.37;34.33;;;0.30;99.90;;;;;;5056093;28;20214;-71
2021/12/06 05:54:28;;;;;;;99.27;31.40;;;0.60;99.90;;;;;;5055271;28;20212;-71
2021/12/06 05:56:58;;;;;;;230.70;36.07;;;0.80;99.90;;;;;;5062721;28;20192;-71
2021/12/06 05:59:27;;;;;;;283.70;38.83;;;0.90;99.90;;;;;;5056480;28;20196;-71
2021/12/06 06:01:58;;;;;;;351.10;40.60;;;1.10;99.90;;;;;;5054123;28;20252;-71
2021/12/06 06:04:29;;;;;;;354.80;39.83;;;1.20;99.90;;;;;;5059185;28;20768;-71
2021/12/06 06:06:59;;;;;;;143.83;33.43;;;1.30;99.90;;;;;;5060169;28;20267;-70
2021/12/06 06:09:27;;;;;;;243.33;37.10;;;1.30;99.90;;;;;;5058566;28;20223;-71
2021/12/06 06:11:56;;;;;;;311.30;37.43;;;1.30;99.90;;;;;;5083279;28;20269;-71
2021/12/06 06:14:25;;;;;;;266.87;37.57;;;1.40;99.90;;;;;;5057151;28;20258;-71
2021/12/06 06:17:03;;;;;;;343.73;40.77;;;1.40;99.90;;;;;;5062033;28;20282;-70
2021/12/06 06:19:32;;;;;;;252.33;38.10;;;1.40;99.90;;;;;;5055661;28;20736;-71
2021/12/06 06:22:00;;;;;;;366.77;39.80;;;1.40;99.90;;;;;;5057827;28;20207;-70
2021/12/06 06:24:28;;;;;;;335.60;40.37;;;1.40;99.90;;;;;;5051929;28;20192;-69
2021/12/06 06:26:57;;;;;;;233.77;35.90;;;1.40;99.90;;;;;;5059423;28;20320;-71
2021/12/06 06:29:26;;;;;;;297.00;38.67;;;1.40;99.90;;;;;;5056199;28;20200;-70
2021/12/06 06:31:55;;;;;;;288.83;38.20;;;1.40;99.90;;;;;;5063740;28;20851;-70
2021/12/06 06:34:25;;;;;;;228.73;36.33;;;1.40;99.90;;;;;;5059291;28;20682;-71
2021/12/06 06:36:53;;;;;;;285.03;37.87;;;1.30;99.90;;;;;;5053969;28;20254;-70
2021/12/06 06:39:22;;;;;;;232.57;36.57;;;1.30;99.90;;;;;;5056659;28;20216;-70
2021/12/06 06:41:52;;;;;;;157.43;33.07;;;1.20;99.90;;;;;;5062539;28;20739;-69
2021/12/06 06:44:22;;;;;;;164.70;34.00;;;1.10;99.90;;;;;;5054645;28;20560;-71
2021/12/06 06:46:52;;;;;;;121.57;31.53;;;1.00;99.90;;;;;;5064465;28;20188;-71
2021/12/06 06:49:21;;;;;;;167.63;34.40;;;0.90;99.90;;;;;;5065488;28;20200;-70
2021/12/06 06:51:51;;;;;;;174.83;34.13;;;0.80;99.90;;;;;;5069207;28;20279;-69
2021/12/06 06:54:20;;;;;;;154.90;32.73;;;0.80;99.90;;;;;;5064222;28;20216;-71
2021/12/06 06:56:49;;;;;;;135.07;32.10;;;0.70;99.90;;;;;;5061029;28;20196;-70
2021/12/06 06:59:18;;;;;;;126.07;32.10;;;0.60;99.90;;;;;;5074399;28;20197;-68
2021/12/06 07:01:47;;;;;;;132.93;31.63;;;0.60;99.90;;;;;;5063147;28;20242;-69
2021/12/06 07:04:16;;;;;;;140.70;31.20;;;0.50;99.90;;;;;;5063009;28;20180;-69
2021/12/06 07:06:44;;;;;;;128.97;31.23;;;0.50;99.90;;;;;;5059820;28;20204;-71
2021/12/06 07:09:14;;;;;;;168.70;33.33;;;0.40;99.90;;;;;;5064962;28;20212;-69
2021/12/06 07:11:45;;;;;;;93.63;30.80;;;0.40;99.90;;;;;;5067595;28;20201;-72
2021/12/06 07:14:14;;;;;;;110.50;32.73;;;0.30;99.90;;;;;;5045926;28;20213;-72
2021/12/06 07:16:44;;;;;;;100.83;31.53;;;0.30;99.90;;;;;;5065409;28;20204;-72
2021/12/06 07:19:13;;;;;;;71.20;29.47;;;0.20;99.90;;;;;;5058164;28;20192;-72
2021/12/06 07:21:57;;;;;;;72.27;29.87;;;0.20;99.90;;;;;;5099820;28;20196;-71
2021/12/06 07:24:27;;;;;;;124.20;31.47;;;0.20;99.90;;;;;;5060662;28;20200;-71
2021/12/06 07:26:59;;;;;;;86.10;30.03;;;0.20;99.90;;;;;;5069500;28;20215;-71
2021/12/06 07:29:33;;;;;;;120.60;31.57;;;0.10;99.90;;;;;;5058506;28;20195;-71
2021/12/06 07:32:03;;;;;;;115.43;31.00;;;0.10;99.90;;;;;;5060115;28;20575;-72
2021/12/06 07:34:32;;;;;;;89.63;30.40;;;0.10;99.90;;;;;;5061250;28;20212;-70
2021/12/06 07:37:02;;;;;;;109.60;32.40;;;0.10;99.90;;;;;;5059531;28;20196;-70
2021/12/06 07:39:33;;;;;;;112.07;32.97;;;0.10;99.90;;;;;;5054523;28;20203;-71
2021/12/06 07:42:02;;;;;;;195.17;34.77;;;0.10;99.90;;;;;;5056456;28;20220;-71
2021/12/06 07:44:31;;;;;;;123.20;32.47;;;0.10;99.90;;;;;;5070984;28;20196;-71
2021/12/06 07:46:59;;;;;;;190.23;34.83;;;0.00;99.90;;;;;;5062757;28;20850;-70
2021/12/06 07:49:29;;;;;;;133.57;33.87;;;0.10;99.90;;;;;;5066017;28;20201;-71
2021/12/06 07:52:18;;;;;;;202.60;36.60;;;0.10;99.90;;;;;;5053660;28;20727;-71
2021/12/06 07:54:48;;;;;;;202.97;35.43;;;0.10;99.90;;;;;;5057975;28;20552;-70
2021/12/06 07:57:17;;;;;;;165.37;34.73;;;0.10;99.90;;;;;;5078246;28;20768;-71
2021/12/06 07:59:45;;;;;;;184.77;36.37;;;0.10;99.90;;;;;;5059041;28;20258;-71
2021/12/06 08:02:14;;;;;;;154.43;33.23;;;0.10;99.90;;;;;;5050869;28;20691;-71
2021/12/06 08:04:43;;;;;;;136.80;32.40;;;0.10;99.90;;;;;;5054184;28;20197;-71
2021/12/06 08:07:11;;;;;;;121.87;30.27;;;0.10;99.90;;;;;;5056427;28;20192;-71
2021/12/06 08:09:40;;;;;;;115.70;31.07;;;0.10;99.90;;;;;;5057691;28;20326;-72
2021/12/06 08:12:11;;;;;;;119.03;29.97;;;0.10;99.90;;;;;;5053952;28;20205;-71
2021/12/06 08:14:39;;;;;;;103.93;28.97;;;0.20;99.90;;;;;;5038943;28;20220;-72
2021/12/06 08:17:08;;;;;;;156.43;31.93;;;0.20;99.90;;;;;;5054210;28;20245;-71
2021/12/06 08:19:37;;;;;;;118.93;30.10;;;0.20;99.90;;;;;;5058895;28;20202;-71
2021/12/06 08:22:05;;;;;;;120.90;31.23;;;0.20;99.90;;;;;;5060176;28;20670;-71
2021/12/06 08:24:34;;;;;;;70.30;27.57;;;0.20;99.90;;;;;;5058670;28;21041;-71
2021/12/06 08:27:03;;;;;;;72.27;28.10;;;0.30;99.90;;;;;;5060916;28;20606;-71
2021/12/06 08:29:33;;;;;;;101.87;28.83;;;0.30;99.90;;;;;;5058953;28;20601;-71
2021/12/06 08:32:02;;;;;;;105.30;28.13;;;0.30;99.90;;;;;;5056140;28;20197;-71
2021/12/06 08:34:31;;;;;;;163.00;31.07;;;0.40;99.90;;;;;;5058652;28;20861;-70
2021/12/06 08:37:01;;;;;;;156.60;31.00;;;0.50;99.90;;;;;;5056127;28;20647;-71
2021/12/06 08:39:30;;;;;;;70.43;26.07;;;0.50;99.90;;;;;;5054836;28;20192;-71
2021/12/06 08:41:59;;;;;;;182.27;30.07;;;0.50;99.90;;;;;;5081355;28;20772;-71
2021/12/06 08:44:27;;;;;;;152.37;31.60;;;0.60;99.90;;;;;;5061298;28;20334;-71
2021/12/06 08:46:58;;;;;;;91.40;29.10;;;0.60;99.90;;;;;;5062736;28;20678;-71
2021/12/06 08:49:27;;;;;;;94.77;26.87;;;0.60;99.90;;;;;;5054109;28;20599;-71
2021/12/06 08:51:57;;;;;;;104.17;28.57;;;0.60;99.90;;;;;;5062118;28;20188;-71
2021/12/06 08:54:29;;;;;;;154.03;33.53;;;0.60;99.90;;;;;;5058094;28;20687;-72
2021/12/06 08:57:00;;;;;;;101.70;28.10;;;0.70;99.90;;;;;;5058236;28;20540;-70
2021/12/06 08:59:29;;;;;;;113.27;28.47;;;0.70;99.90;;;;;;5055975;28;20204;-72
2021/12/06 09:01:59;;;;;;;80.13;26.03;;;0.70;99.90;;;;;;5061839;28;20216;-71
2021/12/06 09:04:48;;;;;;;79.27;27.37;;;0.80;99.90;;;;;;5054920;28;20185;-71
2021/12/06 09:07:19;;;;;;;75.73;27.07;;;0.90;99.90;;;;;;5057749;28;20972;-71
2021/12/06 09:09:50;;;;;;;88.97;34.47;;;0.90;99.90;;;;;;5055291;28;20667;-71
2021/12/06 09:12:22;;;;;;;117.80;31.00;;;0.90;99.90;;;;;;5055218;28;20208;-71
2021/12/06 09:14:50;;;;;;;82.37;28.60;;;1.00;99.90;;;;;;5062334;28;20900;-71
2021/12/06 09:17:21;;;;;;;61.23;27.77;;;1.00;99.90;;;;;;5061546;28;20210;-71
2021/12/06 09:19:50;;;;;;;116.40;41.73;;;1.20;99.90;;;;;;5057299;28;20235;-71
2021/12/06 09:22:19;;;;;;;85.53;35.07;;;1.10;99.90;;;;;;5053212;28;20204;-71
2021/12/06 09:24:49;;;;;;;105.20;30.27;;;1.10;99.90;;;;;;5051245;28;20227;-71
2021/12/06 09:27:19;;;;;;;59.60;28.37;;;1.10;99.90;;;;;;5088694;28;20519;-71
2021/12/06 09:29:47;;;;;;;76.83;29.57;;;1.10;99.90;;;;;;5062116;28;20196;-70
2021/12/06 09:32:18;;;;;;;60.03;28.83;;;1.30;99.90;;;;;;5069996;28;20283;-70
2021/12/06 09:34:48;;;;;;;76.53;29.57;;;1.20;99.90;;;;;;5045817;28;20655;-70
2021/12/06 09:37:19;;;;;;;61.60;29.70;;;1.20;99.90;;;;;;5061465;28;20519;-70
2021/12/06 09:39:47;;;;;;;68.23;31.10;;;1.30;99.90;;;;;;5055513;28;20188;-71
2021/12/06 09:42:18;;;;;;;69.77;31.53;;;1.30;99.90;;;;;;5057636;28;20680;-70
2021/12/06 09:44:47;;;;;;;62.40;29.33;;;1.40;99.90;;;;;;5072198;28;20185;-70
2021/12/06 09:47:16;;;;;;;64.27;27.87;;;1.40;99.90;;;;;;5056857;28;20198;-70
2021/12/06 09:49:45;;;;;;;56.27;27.93;;;1.30;99.90;;;;;;5054864;28;20582;-70
2021/12/06 09:52:15;;;;;;;79.40;28.80;;;1.20;99.90;;;;;;5057397;28;20812;-70
2021/12/06 09:54:44;;;;;;;70.60;28.97;;;1.30;99.90;;;;;;5056143;28;20234;-70
2021/12/06 09:57:15;;;;;;;64.17;27.70;;;1.30;99.90;;;;;;5056801;28;20193;-70
2021/12/06 09:59:45;;;;;;;71.07;27.70;;;1.30;99.90;;;;;;5052884;28;20552;-70
2021/12/06 10:02:17;;;;;;;57.67;28.73;;;1.50;99.90;;;;;;5056037;28;20686;-70
2021/12/06 10:04:53;;;;;;;75.20;30.13;;;1.60;99.90;;;;;;5060729;28;20551;-70
2021/12/06 10:07:24;;;;;;;55.27;28.33;;;1.70;99.90;;;;;;5055495;28;20666;-71
2021/12/06 10:09:54;;;;;;;57.70;28.53;;;1.90;99.90;;;;;;5050255;28;20200;-70
2021/12/06 10:12:23;;;;;;;59.27;28.63;;;2.00;99.90;;;;;;5075333;28;20668;-70
2021/12/06 10:14:55;;;;;;;53.67;28.30;;;2.00;99.90;;;;;;5082136;28;20212;-70
2021/12/06 10:17:26;;;;;;;57.87;29.20;;;2.00;99.90;;;;;;5053701;28;20205;-72
2021/12/06 10:19:54;;;;;;;57.27;29.03;;;2.00;99.90;;;;;;5062938;28;20204;-71
2021/12/06 10:22:29;;;;;;;60.60;28.83;;;2.10;99.90;;;;;;5063831;28;20254;-70
2021/12/06 10:25:00;;;;;;;53.60;28.53;;;2.30;99.90;;;;;;5061067;28;20342;-70
2021/12/06 10:27:55;;;;;;;56.63;28.63;;;2.30;99.90;;;;;;5055150;28;20288;-70
2021/12/06 10:30:28;;;;;;;56.67;28.50;;;2.30;99.90;;;;;;5067801;28;20196;-71
2021/12/06 10:33:03;;;;;;;54.43;30.13;;;2.40;99.90;;;;;;5060237;28;20262;-70
2021/12/06 10:35:32;;;;;;;49.73;28.77;;;2.60;99.90;;;;;;5060323;28;20212;-70
2021/12/06 10:38:02;;;;;;;46.03;25.27;;;2.80;99.90;;;;;;5057204;28;20201;-70
2021/12/06 10:40:34;;;;;;;48.13;24.23;;;2.80;99.90;;;;;;5061183;28;20232;-70
2021/12/06 10:43:05;;;;;;;47.00;25.60;;;2.90;99.90;;;;;;5059008;28;20228;-71
2021/12/06 10:45:36;;;;;;;43.00;24.30;;;3.00;99.90;;;;;;5058159;28;20185;-71
2021/12/06 10:48:12;;;;;;;39.30;24.57;;;3.20;99.90;;;;;;5058777;28;20192;-71
2021/12/06 10:50:46;;;;;;;39.67;23.37;;;3.40;99.90;;;;;;5058303;28;20241;-71
2021/12/06 10:53:18;;;;;;;40.37;22.07;;;3.60;99.90;;;;;;5061831;28;20258;-71
2021/12/06 10:55:49;;;;;;;48.43;29.80;;;3.70;99.90;;;;;;5066501;28;20212;-70
2021/12/06 10:58:23;;;;;;;35.63;19.63;;;3.80;99.90;;;;;;5062176;28;20208;-71
2021/12/06 11:00:56;;;;;;;31.57;19.37;;;3.80;99.90;;;;;;5057394;28;20207;-73
2021/12/06 11:03:32;;;;;;;31.70;18.57;;;3.80;99.90;;;;;;5059833;28;20765;-71
2021/12/06 11:06:04;;;;;;;28.93;19.00;;;3.90;99.90;;;;;;5057719;28;20193;-71
2021/12/06 11:08:36;;;;;;;26.40;18.43;;;4.20;99.90;;;;;;5059754;28;20289;-71
2021/12/06 11:11:08;;;;;;;27.77;17.40;;;4.30;99.90;;;;;;5059457;28;20207;-70
2021/12/06 11:13:39;;;;;;;29.00;16.63;;;4.50;99.90;;;;;;5054995;28;20192;-71
2021/12/06 11:16:12;;;;;;;26.40;15.57;;;4.70;99.90;;;;;;5058976;28;20559;-71
2021/12/06 11:18:44;;;;;;;22.27;15.43;;;4.90;99.90;;;;;;5059693;28;20205;-71
2021/12/06 11:21:36;;;;;;;22.83;14.20;;;5.10;99.90;;;;;;5061464;28;20254;-71
2021/12/06 11:24:18;;;;;;;20.97;14.27;;;5.20;99.90;;;;;;5058483;28;20604;-71
2021/12/06 11:26:59;;;;;;;19.83;14.30;;;5.10;99.90;;;;;;5058661;28;20250;-71
2021/12/06 11:29:30;;;;;;;20.00;14.13;;;5.00;99.90;;;;;;5054124;28;20287;-71
2021/12/06 11:32:05;;;;;;;22.60;14.00;;;5.00;99.90;;;;;;5058329;28;20196;-71
2021/12/06 11:34:38;;;;;;;20.60;13.90;;;5.00;99.90;;;;;;5064152;28;20206;-71
2021/12/06 11:37:18;;;;;;;20.33;13.23;;;5.00;99.90;;;;;;5063368;28;20220;-70
2021/12/06 11:39:50;;;;;;;21.53;13.83;;;5.10;99.90;;;;;;5067088;28;20227;-72
2021/12/06 11:42:19;;;;;;;21.03;13.50;;;5.30;99.90;;;;;;5061548;28;20248;-71
2021/12/06 11:44:48;;;;;;;18.90;13.23;;;5.30;99.90;;;;;;5061827;28;20204;-71
2021/12/06 11:47:19;;;;;;;17.27;13.13;;;5.30;99.90;;;;;;5061804;28;20671;-71
2021/12/06 11:49:52;;;;;;;26.53;14.17;;;5.40;99.90;;;;;;5063349;28;20257;-71
2021/12/06 11:52:23;;;;;;;17.47;12.30;;;5.60;99.90;;;;;;5055542;28;20223;-71
2021/12/06 11:54:55;;;;;;;15.80;11.17;;;5.80;99.90;;;;;;5057099;28;20192;-71
2021/12/06 11:57:28;;;;;;;15.20;10.77;;;5.90;99.90;;;;;;5055234;28;20321;-71
2021/12/06 12:00:00;;;;;;;15.90;10.77;;;5.90;99.90;;;;;;5061178;28;20208;-72
2021/12/06 12:02:32;;;;;;;16.17;11.17;;;6.00;99.90;;;;;;5080940;28;20197;-71
2021/12/06 12:05:18;;;;;;;13.00;9.80;;;6.10;99.90;;;;;;5057916;28;20751;-71
2021/12/06 12:07:59;;;;;;;13.40;9.80;;;6.30;99.90;;;;;;5060329;28;20192;-72
2021/12/06 12:10:31;;;;;;;14.90;9.20;;;6.40;99.90;;;;;;5056945;28;20210;-70
2021/12/06 12:13:00;;;;;;;11.53;9.13;;;6.40;99.90;;;;;;5063457;28;20230;-72
2021/12/06 12:15:30;;;;;;;11.67;9.43;;;6.40;99.90;;;;;;5062031;28;20732;-71
2021/12/06 12:17:58;;;;;;;11.17;8.40;;;6.40;99.90;;;;;;5054423;28;20238;-71
2021/12/06 12:20:48;;;;;;;10.47;8.60;;;6.40;99.90;;;;;;5065356;28;20231;-71
2021/12/06 12:23:16;;;;;;;13.30;9.40;;;6.40;99.90;;;;;;5060328;28;20208;-71
2021/12/06 12:25:54;;;;;;;15.90;10.80;;;6.30;99.90;;;;;;5062086;28;20271;-72
2021/12/06 12:28:25;;;;;;;12.13;8.63;;;6.20;99.90;;;;;;5061576;28;20257;-71
2021/12/06 12:31:00;;;;;;;14.37;10.17;;;6.20;99.90;;;;;;5060550;28;20200;-71
2021/12/06 12:33:29;;;;;;;17.53;9.83;;;6.20;99.90;;;;;;5058065;28;20195;-71
2021/12/06 12:36:03;;;;;;;14.43;9.83;;;6.20;99.90;;;;;;5058966;28;20292;-71
2021/12/06 12:38:34;;;;;;;13.83;9.27;;;6.20;99.90;;;;;;5059168;28;21488;-70
2021/12/06 12:41:08;;;;;;;13.00;9.20;;;6.20;99.90;;;;;;5060564;28;20264;-70
2021/12/06 12:43:39;;;;;;;14.03;9.37;;;6.20;99.90;;;;;;5056953;28;20740;-71
2021/12/06 12:46:13;;;;;;;13.90;9.40;;;6.20;99.90;;;;;;5060546;28;20209;-70
2021/12/06 12:48:53;;;;;;;14.90;9.67;;;6.20;99.90;;;;;;5055636;28;20283;-70
2021/12/06 12:51:24;;;;;;;14.37;9.57;;;6.30;99.90;;;;;;5060776;28;20204;-70
2021/12/06 12:54:01;;;;;;;16.70;9.60;;;6.30;99.90;;;;;;5063012;28;20238;-70
2021/12/06 12:56:34;;;;;;;15.00;9.53;;;6.30;99.90;;;;;;5054233;28;20215;-71
2021/12/06 12:59:19;;;;;;;12.47;9.37;;;6.30;99.90;;;;;;5061073;28;20279;-71
2021/12/06 13:02:25;;;;;;;13.97;9.30;;;6.40;99.90;;;;;;5056449;28;20210;-71
2021/12/06 13:05:16;;;;;;;13.17;9.00;;;6.30;99.90;;;;;;5052671;28;20254;-70